TimeEST,TemperatureF,Dew PointF,Humidity,Sea Level PressureIn,VisibilityMPH,Wind Direction,Wind SpeedMPH,Gust SpeedMPH,PrecipitationIn,Events,Conditions,WindDirDegrees,DateUTC
12:56 AM,32.0,26.1,79,29.86,10.0,Calm,Calm,-,N/A,,Clear,0,2013-03-01 05:56:00
2:56 AM,30.0,25.0,82,29.85,10.0,Calm,Calm,-,N/A,,Clear,0,2013-03-01 07:56:00
3:56 AM,30.0,25.0,82,29.86,10.0,Variable,3.5,-,N/A,,Clear,0,2013-03-01 08:56:00
4:56 AM,30.0,25.0,82,29.86,10.0,Calm,Calm,-,N/A,,Clear,0,2013-03-01 09:56:00
7:56 AM,36.0,26.1,67,29.89,10.0,West,6.9,-,N/A,,Clear,280,2013-03-01 12:56:00
8:56 AM,42.1,28.0,58,29.88,10.0,WNW,9.2,-,N/A,,Clear,300,2013-03-01 13:56:00
9:56 AM,46.0,25.0,44,29.88,10.0,West,11.5,16.1,N/A,,Clear,270,2013-03-01 14:56:00
10:56 AM,48.0,25.0,41,29.88,10.0,West,9.2,16.1,N/A,,Mostly Cloudy,280,2013-03-01 15:56:00
11:56 AM,46.0,25.0,44,29.88,10.0,NW,8.1,-,N/A,,Overcast,310,2013-03-01 16:56:00
12:56 PM,46.0,25.0,44,29.87,10.0,WNW,10.4,16.1,N/A,,Overcast,290,2013-03-01 17:56:00
1:56 PM,45.0,24.1,44,29.86,10.0,West,8.1,16.1,N/A,,Overcast,270,2013-03-01 18:56:00
2:56 PM,45.0,26.1,48,29.85,10.0,WNW,8.1,-,N/A,,Overcast,300,2013-03-01 19:56:00
3:56 PM,44.1,25.0,47,29.86,10.0,West,8.1,-,N/A,,Overcast,270,2013-03-01 20:56:00
5:56 PM,43.0,27.0,53,29.87,10.0,Calm,Calm,-,N/A,,Overcast,0,2013-03-01 22:56:00
6:56 PM,41.0,30.9,67,29.89,10.0,Calm,Calm,-,N/A,,Overcast,0,2013-03-01 23:56:00
7:56 PM,42.1,28.0,58,29.91,10.0,NW,4.6,-,N/A,,Overcast,310,2013-03-02 00:56:00
8:56 PM,42.1,25.0,51,29.91,10.0,NW,4.6,-,N/A,,Overcast,310,2013-03-02 01:56:00
9:56 PM,41.0,24.1,51,29.92,10.0,WNW,4.6,-,N/A,,Overcast,300,2013-03-02 02:56:00
10:56 PM,36.0,25.0,64,29.92,10.0,Calm,Calm,-,N/A,,Partly Cloudy,0,2013-03-02 03:56:00
11:56 PM,33.1,25.0,72,29.91,10.0,Calm,Calm,-,N/A,,Clear,0,2013-03-02 04:56:00